Time;durP1;ratioP1;P1;durP2;ratioP2;P2;SDS_P1;SDS_P2;PMS_P1;PMS_P2;Temp;Humidity;BMP_temperature;BMP_pressure;BME280_temperature;BME280_humidity;BME280_pressure;Samples;Min_cycle;Max_cycle;Signal;HPM_P1;HPM_P2
2022/04/29 00:00:08;;;;;;;4.57;1.95;;;22.60;50.10;;;;;;4934431;29;20091;-80
2022/04/29 00:02:34;;;;;;;3.25;1.85;;;22.60;50.00;;;;;;4934351;29;20075;-79
2022/04/29 00:05:00;;;;;;;5.35;2.28;;;22.60;50.00;;;;;;4934049;29;20488;-79
2022/04/29 00:07:26;;;;;;;4.28;1.92;;;22.60;50.10;;;;;;4934142;29;20040;-79
2022/04/29 00:09:52;;;;;;;4.90;2.08;;;22.60;50.00;;;;;;4933379;29;20160;-80
2022/04/29 00:12:19;;;;;;;3.42;2.05;;;22.60;50.10;;;;;;4934504;29;20548;-79
2022/04/29 00:14:46;;;;;;;6.88;2.13;;;22.60;50.60;;;;;;4932985;28;20038;-79
2022/04/29 00:17:11;;;;;;;5.35;2.20;;;22.60;50.00;;;;;;4933094;29;20145;-79
2022/04/29 00:19:38;;;;;;;4.72;2.10;;;22.60;50.00;;;;;;4934234;29;20501;-79
2022/04/29 00:22:04;;;;;;;3.95;1.80;;;22.60;50.00;;;;;;4933903;29;20126;-78
2022/04/29 00:24:30;;;;;;;4.07;2.25;;;22.60;50.10;;;;;;4933703;29;20191;-78
2022/04/29 00:26:58;;;;;;;3.03;1.88;;;22.60;50.00;;;;;;4932765;29;20488;-78
2022/04/29 00:29:24;;;;;;;3.83;2.10;;;22.60;50.00;;;;;;4933955;29;20039;-78
2022/04/29 00:31:50;;;;;;;5.10;1.80;;;22.60;50.00;;;;;;4932988;29;20032;-78
2022/04/29 00:34:17;;;;;;;4.65;2.10;;;22.60;49.90;;;;;;4933818;29;20030;-78
2022/04/29 00:36:43;;;;;;;5.85;2.20;;;22.60;49.90;;;;;;4932688;29;20031;-79
2022/04/29 00:39:10;;;;;;;4.43;2.30;;;22.60;49.90;;;;;;4932792;29;20078;-78
2022/04/29 00:41:36;;;;;;;4.68;2.10;;;22.60;49.90;;;;;;4932688;29;20031;-78
2022/04/29 00:44:07;;;;;;;5.05;2.25;;;22.60;49.90;;;;;;4932435;29;20032;-78
2022/04/29 00:46:39;;;;;;;3.05;1.85;;;22.60;49.90;;;;;;4932619;29;20090;-81
2022/04/29 00:49:06;;;;;;;5.72;2.40;;;22.60;49.90;;;;;;4932756;29;20031;-78
2022/04/29 00:51:33;;;;;;;4.93;2.00;;;22.60;49.90;;;;;;4932684;29;20436;-79
2022/04/29 00:54:01;;;;;;;4.10;2.22;;;22.60;49.90;;;;;;4916799;29;20067;-78
2022/04/29 00:56:29;;;;;;;5.72;1.95;;;22.60;49.90;;;;;;4904507;29;20492;-78
2022/04/29 00:59:20;;;;;;;4.20;2.10;;;22.60;49.90;;;;;;4937692;29;20032;-79
2022/04/29 01:01:46;;;;;;;4.20;1.88;;;22.60;49.90;;;;;;4936321;29;20040;-79
2022/04/29 01:04:21;;;;;;;4.18;1.90;;;22.60;49.90;;;;;;4936006;29;20118;-79
2022/04/29 01:06:47;;;;;;;4.18;2.10;;;22.60;49.90;;;;;;4936257;29;20028;-79
2022/04/29 01:09:13;;;;;;;5.47;2.35;;;22.60;49.90;;;;;;4936502;29;20439;-79
2022/04/29 01:11:39;;;;;;;4.50;2.00;;;22.60;49.90;;;;;;4937446;29;20027;-78
2022/04/29 01:14:05;;;;;;;2.63;1.80;;;22.60;49.90;;;;;;4936066;29;20027;-79
2022/04/29 01:16:32;;;;;;;3.03;2.00;;;22.50;49.80;;;;;;4936412;29;20038;-79
2022/04/29 01:18:58;;;;;;;3.03;1.95;;;22.60;49.90;;;;;;4936207;29;20550;-79
2022/04/29 01:21:25;;;;;;;4.35;2.20;;;22.60;50.20;;;;;;4936004;29;20039;-79
2022/04/29 01:23:51;;;;;;;2.97;1.83;;;22.60;49.90;;;;;;4936034;29;20082;-79
2022/04/29 01:26:18;;;;;;;4.13;2.10;;;22.60;49.90;;;;;;4935583;29;20440;-79
2022/04/29 01:28:52;;;;;;;4.20;2.03;;;22.50;49.90;;;;;;4920238;29;20039;-79
2022/04/29 01:31:23;;;;;;;4.90;2.22;;;22.60;49.80;;;;;;4920554;29;20036;-79
2022/04/29 01:33:50;;;;;;;2.80;1.90;;;22.50;49.80;;;;;;4935405;29;20020;-79
2022/04/29 01:36:24;;;;;;;2.65;1.60;;;22.60;49.80;;;;;;4935869;29;20535;-79
2022/04/29 01:38:56;;;;;;;3.22;1.52;;;22.60;49.80;;;;;;4919869;29;20567;-78
2022/04/29 01:41:22;;;;;;;3.38;2.15;;;22.60;49.80;;;;;;4935783;29;20063;-79
2022/04/29 01:43:48;;;;;;;3.67;1.83;;;22.60;49.80;;;;;;4935191;29;20496;-79
2022/04/29 01:46:14;;;;;;;3.83;2.03;;;22.60;49.70;;;;;;4935501;29;20039;-79
2022/04/29 01:48:58;;;;;;;3.85;2.00;;;22.60;49.70;;;;;;4936618;29;20389;-79
2022/04/29 01:51:30;;;;;;;3.33;1.73;;;22.60;49.70;;;;;;4936770;29;20031;-79
2022/04/29 01:53:56;;;;;;;4.38;1.83;;;22.60;49.80;;;;;;4935135;29;20031;-79
2022/04/29 01:56:32;;;;;;;5.20;2.17;;;22.60;49.80;;;;;;4935445;29;20038;-79
2022/04/29 01:59:02;;;;;;;3.40;1.95;;;22.60;49.80;;;;;;4935454;29;20035;-78
2022/04/29 02:01:32;;;;;;;4.07;2.10;;;22.60;49.80;;;;;;4935413;29;20441;-78
2022/04/29 02:04:01;;;;;;;2.92;1.70;;;22.60;49.70;;;;;;4935038;29;20063;-79
2022/04/29 02:06:28;;;;;;;3.10;1.70;;;22.60;49.70;;;;;;4934128;29;20507;-78
2022/04/29 02:08:54;;;;;;;2.83;1.63;;;22.50;49.60;;;;;;4935202;29;20039;-79
2022/04/29 02:11:21;;;;;;;2.88;1.88;;;22.60;49.80;;;;;;4919581;29;20042;-78
2022/04/29 02:13:56;;;;;;;3.75;1.88;;;22.50;49.80;;;;;;4934722;29;20038;-79
2022/04/29 02:16:32;;;;;;;4.20;2.08;;;22.60;49.70;;;;;;4920666;29;20469;-79
2022/04/29 02:18:58;;;;;;;4.90;1.95;;;22.60;49.80;;;;;;4919134;29;20040;-79
2022/04/29 02:21:24;;;;;;;6.47;2.25;;;22.60;49.70;;;;;;4935158;29;20039;-78
2022/04/29 02:23:50;;;;;;;4.55;2.10;;;22.60;49.80;;;;;;4935965;29;20043;-79
2022/04/29 02:26:15;;;;;;;2.90;1.75;;;22.50;49.70;;;;;;4934677;29;20043;-79
2022/04/29 02:28:41;;;;;;;4.15;2.08;;;22.60;49.70;;;;;;4934975;29;20048;-80
2022/04/29 02:31:07;;;;;;;3.38;1.95;;;22.50;49.70;;;;;;4919163;29;20039;-79
2022/04/29 02:33:34;;;;;;;7.32;1.88;;;22.50;49.70;;;;;;4935368;29;20035;-79
2022/04/29 02:36:01;;;;;;;2.60;1.70;;;22.50;49.60;;;;;;4934659;29;20063;-80
2022/04/29 02:38:27;;;;;;;4.68;2.30;;;22.50;50.20;;;;;;4919140;29;20066;-79
2022/04/29 02:40:54;;;;;;;2.78;1.88;;;22.50;49.60;;;;;;4936064;29;20058;-79
2022/04/29 02:43:20;;;;;;;3.30;1.90;;;22.50;49.60;;;;;;4933871;29;20042;-79
2022/04/29 02:45:47;;;;;;;3.42;1.80;;;22.60;49.60;;;;;;4934716;29;20524;-78
2022/04/29 02:48:18;;;;;;;4.07;2.05;;;22.50;49.50;;;;;;4934436;29;20477;-80
2022/04/29 02:50:44;;;;;;;4.15;1.83;;;22.60;49.60;;;;;;4934542;29;20086;-80
2022/04/29 02:53:12;;;;;;;3.33;2.00;;;22.60;49.60;;;;;;4933941;29;20454;-79
2022/04/29 02:55:38;;;;;;;3.03;2.00;;;22.60;49.60;;;;;;4934410;29;20063;-79
2022/04/29 02:58:07;;;;;;;4.13;1.88;;;22.60;49.60;;;;;;4935357;29;20027;-79
2022/04/29 03:00:32;;;;;;;4.10;2.20;;;22.60;49.50;;;;;;4934418;29;20416;-79
2022/04/29 03:02:58;;;;;;;4.18;1.90;;;22.60;49.50;;;;;;4918066;29;20032;-79
2022/04/29 03:05:26;;;;;;;2.47;1.88;;;22.50;49.50;;;;;;4934392;29;20089;-79
2022/04/29 03:07:52;;;;;;;2.22;1.60;;;22.50;49.40;;;;;;4918477;29;20118;-79
2022/04/29 03:10:18;;;;;;;3.13;2.08;;;22.50;49.50;;;;;;4934326;29;20032;-79
2022/04/29 03:12:44;;;;;;;4.80;1.80;;;22.50;49.50;;;;;;4918295;29;20031;-79
2022/04/29 03:15:16;;;;;;;2.90;1.70;;;22.50;49.50;;;;;;4934128;29;20032;-80
2022/04/29 03:20:34;;;;;;;3.30;1.77;;;22.50;49.50;;;;;;4918195;29;20043;-78
2022/04/29 03:23:00;;;;;;;3.63;1.77;;;22.50;49.50;;;;;;4940853;23;20055;-73
2022/04/29 03:25:25;;;;;;;4.15;2.03;;;22.60;49.50;;;;;;4933956;29;20111;-73
2022/04/29 03:27:51;;;;;;;3.15;1.75;;;22.50;49.50;;;;;;4953896;28;20038;-74
2022/04/29 03:30:17;;;;;;;2.78;1.60;;;22.50;49.50;;;;;;4952982;29;20027;-74
2022/04/29 03:32:54;;;;;;;2.65;1.60;;;22.50;49.40;;;;;;4933533;29;20520;-74
2022/04/29 03:35:29;;;;;;;3.92;1.88;;;22.60;49.50;;;;;;4933758;29;20032;-73
2022/04/29 03:37:55;;;;;;;3.00;1.80;;;22.50;49.50;;;;;;4949616;29;20043;-73
2022/04/29 03:40:24;;;;;;;3.20;1.80;;;22.50;49.50;;;;;;4949377;29;20038;-73
2022/04/29 03:42:51;;;;;;;;;;;22.50;49.40;;;;;;4949722;29;20027;-74
2022/04/29 03:45:20;;;;;;;2.88;1.80;;;22.50;49.40;;;;;;4949411;29;19911;-74
2022/04/29 03:47:46;;;;;;;3.85;1.90;;;22.50;49.40;;;;;;4933555;29;20122;-73
2022/04/29 03:50:31;;;;;;;2.42;1.73;;;22.50;49.40;;;;;;4934635;29;20421;-73
2022/04/29 03:53:10;;;;;;;3.45;1.77;;;22.50;49.30;;;;;;4932941;29;20032;-73
2022/04/29 03:55:38;;;;;;;3.47;1.90;;;22.60;49.40;;;;;;4933449;29;20078;-73
2022/04/29 03:58:04;;;;;;;4.38;1.85;;;22.60;49.40;;;;;;4933224;29;20031;-73
2022/04/29 04:00:40;;;;;;;3.78;2.10;;;22.50;49.30;;;;;;4949432;28;20039;-74
2022/04/29 04:03:06;;;;;;;3.55;1.90;;;22.50;49.30;;;;;;4948558;29;20059;-73
2022/04/29 04:05:34;;;;;;;3.25;1.80;;;22.60;49.40;;;;;;4932907;29;20067;-74
2022/04/29 04:08:00;;;;;;;3.47;1.73;;;22.50;49.30;;;;;;4948992;29;20107;-74
2022/04/29 04:10:41;;;;;;;2.35;1.63;;;22.50;49.40;;;;;;4949134;29;20107;-73
2022/04/29 04:13:07;;;;;;;3.38;1.73;;;22.50;49.40;;;;;;4932919;29;20031;-73
2022/04/29 04:15:52;;;;;;;2.72;1.92;;;22.50;49.40;;;;;;4946472;29;20059;-73
2022/04/29 04:18:18;;;;;;;2.90;1.90;;;22.50;49.30;;;;;;4932879;29;20064;-73
2022/04/29 04:20:48;;;;;;;3.83;2.17;;;22.50;49.30;;;;;;4948878;29;20167;-73
2022/04/29 04:23:15;;;;;;;;;;;22.50;49.30;;;;;;4933046;29;20038;-74
2022/04/29 04:25:41;;;;;;;3.30;2.08;;;22.50;49.30;;;;;;4932908;29;19911;-74
2022/04/29 04:28:13;;;;;;;3.25;1.92;;;22.50;49.40;;;;;;4948784;29;20098;-74
2022/04/29 04:30:52;;;;;;;4.35;1.85;;;22.50;49.30;;;;;;4948126;29;20601;-73
2022/04/29 04:33:23;;;;;;;3.28;2.10;;;22.50;49.30;;;;;;4932523;29;20055;-73
2022/04/29 04:35:50;;;;;;;4.20;2.00;;;22.50;49.20;;;;;;4948763;29;20114;-74
2022/04/29 04:38:15;;;;;;;2.50;1.58;;;22.50;49.20;;;;;;4948998;29;20103;-73
2022/04/29 04:40:49;;;;;;;2.22;1.65;;;22.50;49.30;;;;;;4948700;29;20036;-73
2022/04/29 04:43:14;;;;;;;3.67;1.92;;;22.60;49.30;;;;;;4916859;29;20042;-74
2022/04/29 04:45:40;;;;;;;2.92;1.67;;;22.60;49.30;;;;;;4948594;29;20117;-74
2022/04/29 04:48:25;;;;;;;2.75;1.80;;;22.50;49.30;;;;;;4932934;29;20031;-74
2022/04/29 04:51:10;;;;;;;3.42;2.10;;;22.60;49.30;;;;;;4933636;29;20421;-74
2022/04/29 04:53:40;;;;;;;3.70;1.95;;;22.50;49.30;;;;;;4948165;29;20166;-74
2022/04/29 04:56:06;;;;;;;4.13;1.95;;;22.50;49.30;;;;;;4932788;28;20122;-74
2022/04/29 04:58:34;;;;;;;3.80;2.05;;;22.50;49.20;;;;;;4932555;29;20043;-74
2022/04/29 05:01:01;;;;;;;3.22;2.10;;;22.50;49.20;;;;;;4948614;29;20086;-75
2022/04/29 05:03:53;;;;;;;3.63;2.00;;;22.50;49.30;;;;;;4925000;29;20067;-75
2022/04/29 05:06:37;;;;;;;2.85;1.98;;;22.50;49.20;;;;;;4933700;29;20086;-75
2022/04/29 05:09:04;;;;;;;4.25;1.85;;;22.60;49.20;;;;;;4932500;29;20060;-75
2022/04/29 05:11:33;;;;;;;3.38;1.95;;;22.60;49.20;;;;;;4916937;29;20516;-75
2022/04/29 05:13:59;;;;;;;4.50;2.15;;;22.60;49.20;;;;;;4947973;29;20032;-75
2022/04/29 05:16:27;;;;;;;3.05;1.85;;;22.60;49.20;;;;;;4948316;29;20035;-75
2022/04/29 05:19:24;;;;;;;3.15;1.92;;;22.60;49.20;;;;;;4933695;29;20119;-75
2022/04/29 05:21:51;;;;;;;3.88;2.20;;;22.60;49.20;;;;;;4948372;29;20107;-75
2022/04/29 05:24:17;;;;;;;5.40;2.20;;;22.60;49.30;;;;;;4932189;29;20031;-75
2022/04/29 05:27:01;;;;;;;3.95;1.95;;;22.50;49.20;;;;;;4933640;29;20031;-74
2022/04/29 05:30:03;;;;;;;3.92;2.40;;;22.50;49.20;;;;;;4933641;29;20028;-75
2022/04/29 05:32:47;;;;;;;3.58;2.22;;;22.60;49.30;;;;;;4933117;29;20027;-75
2022/04/29 05:35:32;;;;;;;3.40;2.00;;;22.50;49.20;;;;;;4933583;29;20056;-75
2022/04/29 05:44:00;;;;;;;4.05;2.00;;;22.50;49.30;;;;;;4935347;28;20507;-75
2022/04/29 05:46:26;;;;;;;7.68;2.00;;;22.50;49.30;;;;;;4951510;29;20063;-75
2022/04/29 05:48:52;;;;;;;5.10;2.10;;;22.60;49.20;;;;;;4935714;29;20028;-76
2022/04/29 05:51:18;;;;;;;3.30;2.10;;;22.50;49.20;;;;;;4951833;29;20028;-75
2022/04/29 05:53:44;;;;;;;4.22;2.10;;;22.50;49.10;;;;;;4950996;29;20059;-75
2022/04/29 05:56:11;;;;;;;3.67;2.30;;;22.50;49.20;;;;;;4951342;29;20064;-73
2022/04/29 05:58:37;;;;;;;5.82;2.05;;;22.50;49.20;;;;;;4951540;29;20098;-74
2022/04/29 06:01:22;;;;;;;3.67;2.20;;;22.50;49.20;;;;;;4936943;29;20115;-75
2022/04/29 06:03:48;;;;;;;4.25;2.33;;;22.60;49.10;;;;;;4935148;29;20529;-75
2022/04/29 06:06:14;;;;;;;6.93;2.22;;;22.60;49.10;;;;;;4951332;29;20097;-74
2022/04/29 06:08:42;;;;;;;3.67;2.20;;;22.60;49.00;;;;;;4951258;29;20042;-75
2022/04/29 06:11:08;;;;;;;4.95;2.40;;;22.60;49.00;;;;;;4935496;28;20031;-74
2022/04/29 06:13:37;;;;;;;3.75;2.20;;;22.60;49.00;;;;;;4935006;29;20102;-75
2022/04/29 06:16:22;;;;;;;3.17;1.90;;;22.60;49.00;;;;;;4936386;29;20039;-75
2022/04/29 06:19:14;;;;;;;4.55;1.92;;;22.60;49.00;;;;;;4927745;29;20054;-75
2022/04/29 06:21:59;;;;;;;3.47;1.95;;;22.60;49.00;;;;;;4950721;29;20489;-75
2022/04/29 06:24:26;;;;;;;4.90;2.22;;;22.60;49.10;;;;;;4950846;29;20511;-75
2022/04/29 06:26:52;;;;;;;3.03;2.05;;;22.60;49.10;;;;;;4950837;29;20108;-75
2022/04/29 06:29:18;;;;;;;3.83;1.90;;;22.60;49.10;;;;;;4935389;29;20032;-76
2022/04/29 06:31:44;;;;;;;3.60;2.20;;;22.60;49.10;;;;;;4953377;29;20472;-75
2022/04/29 06:34:39;;;;;;;2.80;1.95;;;22.60;49.20;;;;;;4931858;29;20047;-76
2022/04/29 06:37:06;;;;;;;2.95;1.88;;;22.60;49.20;;;;;;4920144;29;20083;-75
2022/04/29 06:39:32;;;;;;;4.28;2.30;;;22.60;49.30;;;;;;4919454;29;20031;-75
2022/04/29 06:42:26;;;;;;;2.92;2.00;;;22.60;49.20;;;;;;4934644;29;20036;-75
2022/04/29 06:45:18;;;;;;;3.38;1.90;;;22.60;49.30;;;;;;4939948;29;20139;-76
2022/04/29 06:48:13;;;;;;;2.70;1.88;;;22.70;49.30;;;;;;4916676;29;20059;-75
2022/04/29 06:50:58;;;;;;;3.65;2.20;;;22.60;49.30;;;;;;4936405;29;20031;-75
2022/04/29 06:53:42;;;;;;;4.13;2.35;;;22.60;49.30;;;;;;4936467;29;20572;-74
2022/04/29 06:56:09;;;;;;;3.05;1.92;;;22.60;49.30;;;;;;4954110;29;20024;-75
2022/04/29 06:58:34;;;;;;;3.92;2.35;;;22.60;49.30;;;;;;4951072;29;20268;-75
2022/04/29 07:01:01;;;;;;;3.40;1.90;;;22.60;49.30;;;;;;4929395;29;20024;-75
2022/04/29 07:03:27;;;;;;;4.05;2.30;;;22.60;49.30;;;;;;4932638;29;20288;-76
2022/04/29 07:05:54;;;;;;;3.15;2.10;;;22.70;49.40;;;;;;4933898;28;20507;-75
2022/04/29 07:08:21;;;;;;;4.22;2.13;;;22.70;49.40;;;;;;4950454;29;20032;-75
2022/04/29 07:11:05;;;;;;;2.95;1.92;;;22.70;49.50;;;;;;4935843;29;20436;-75
2022/04/29 07:13:51;;;;;;;3.20;2.10;;;22.70;49.50;;;;;;4920179;29;20094;-75
2022/04/29 07:16:18;;;;;;;3.30;2.05;;;22.70;49.40;;;;;;4934262;29;20056;-75
2022/04/29 07:19:05;;;;;;;4.50;2.13;;;22.70;49.50;;;;;;4950072;29;20115;-75
2022/04/29 07:21:32;;;;;;;3.33;2.22;;;22.70;49.40;;;;;;4934158;29;20127;-74
2022/04/29 07:24:00;;;;;;;3.47;2.13;;;22.70;49.50;;;;;;4933662;29;20079;-75
2022/04/29 07:26:31;;;;;;;5.60;2.13;;;22.70;49.40;;;;;;4934191;29;20106;-75
2022/04/29 07:28:57;;;;;;;3.63;2.15;;;22.70;49.50;;;;;;4949840;29;20034;-76
2022/04/29 07:31:29;;;;;;;3.47;2.20;;;22.70;49.40;;;;;;4933865;29;20107;-75
2022/04/29 07:41:44;;;;;;;3.33;2.03;;;22.70;49.50;;;;;;4932760;29;20047;-75
2022/04/29 07:42:57;;;;;;;3.83;2.17;;;22.70;49.40;;;;;;4934082;29;20493;-74
2022/04/29 07:45:24;;;;;;;4.55;2.10;;;22.80;49.60;;;;;;4933359;29;20497;-75
2022/04/29 07:48:08;;;;;;;3.40;2.20;;;22.70;49.50;;;;;;4934483;29;20039;-75
2022/04/29 07:50:36;;;;;;;4.07;2.28;;;22.70;49.50;;;;;;4933123;29;20046;-75
2022/04/29 07:53:03;;;;;;;3.47;2.20;;;22.70;49.50;;;;;;4949025;29;20086;-74
2022/04/29 07:55:29;;;;;;;3.55;2.15;;;22.80;49.60;;;;;;4949316;29;20393;-75
2022/04/29 07:57:56;;;;;;;5.97;2.13;;;22.70;49.50;;;;;;4949109;29;20028;-75
2022/04/29 08:00:22;;;;;;;3.30;2.00;;;22.70;49.50;;;;;;4949136;29;20442;-75
2022/04/29 08:02:49;;;;;;;3.00;1.90;;;22.70;49.50;;;;;;4948762;29;20039;-75
2022/04/29 08:05:24;;;;;;;5.30;2.33;;;22.80;49.60;;;;;;4948840;28;20405;-75
2022/04/29 08:07:50;;;;;;;4.22;2.20;;;22.70;49.50;;;;;;4901489;29;20035;-75
2022/04/29 08:10:16;;;;;;;3.80;2.17;;;22.70;49.50;;;;;;4933041;29;20030;-75
2022/04/29 08:12:42;;;;;;;4.82;2.35;;;22.80;49.50;;;;;;4933036;29;20040;-74
2022/04/29 08:15:33;;;;;;;4.20;2.20;;;22.70;49.50;;;;;;4933291;29;20046;-75
2022/04/29 08:18:16;;;;;;;3.58;2.00;;;22.80;49.50;;;;;;4932816;29;20035;-75
2022/04/29 08:20:43;;;;;;;3.53;2.10;;;22.70;49.50;;;;;;4917042;29;20083;-75
2022/04/29 08:23:09;;;;;;;3.63;2.00;;;22.70;49.50;;;;;;4933703;29;20039;-75
2022/04/29 08:25:36;;;;;;;3.28;2.08;;;22.80;49.50;;;;;;4932841;29;20036;-74
2022/04/29 08:28:03;;;;;;;3.38;2.10;;;22.80;49.50;;;;;;4948652;28;20032;-75
2022/04/29 08:30:30;;;;;;;4.18;2.03;;;22.80;49.40;;;;;;4948536;29;20190;-75
2022/04/29 08:32:57;;;;;;;2.88;1.75;;;22.80;49.50;;;;;;4932023;29;20441;-74
2022/04/29 08:35:29;;;;;;;3.78;2.05;;;22.80;49.50;;;;;;4948666;29;20036;-75
2022/04/29 08:37:57;;;;;;;4.93;2.60;;;22.80;49.40;;;;;;4933891;29;20400;-75
2022/04/29 08:40:25;;;;;;;3.38;2.08;;;22.80;49.50;;;;;;4932571;29;20118;-74
2022/04/29 08:42:53;;;;;;;3.33;2.20;;;22.80;49.50;;;;;;4948388;29;20067;-74
2022/04/29 08:45:19;;;;;;;3.40;2.38;;;22.80;49.50;;;;;;4932710;29;20054;-74
2022/04/29 08:47:47;;;;;;;4.55;2.20;;;22.80;49.60;;;;;;4933862;29;20046;-74
2022/04/29 08:50:21;;;;;;;3.65;2.03;;;22.80;49.50;;;;;;4932685;29;20036;-75
2022/04/29 08:52:49;;;;;;;3.78;2.30;;;22.80;49.50;;;;;;4933324;29;20032;-74
2022/04/29 09:00:45;;;;;;;4.65;2.10;;;22.80;49.60;;;;;;4933861;29;20066;-74
2022/04/29 09:03:13;;;;;;;3.28;2.10;;;22.80;49.60;;;;;;4932304;29;20381;-74
2022/04/29 09:05:39;;;;;;;4.97;2.40;;;22.80;49.60;;;;;;4948188;29;20040;-74
2022/04/29 09:08:05;;;;;;;3.97;2.00;;;22.80;49.60;;;;;;4932278;29;20062;-75
2022/04/29 09:10:36;;;;;;;3.22;1.98;;;22.80;49.60;;;;;;4932523;29;20036;-74
2022/04/29 09:13:13;;;;;;;4.38;2.00;;;22.80;49.60;;;;;;4933244;29;20034;-74
2022/04/29 09:15:59;;;;;;;5.28;1.95;;;22.80;49.70;;;;;;4933919;29;20074;-74
2022/04/29 09:18:44;;;;;;;3.28;2.00;;;22.80;49.60;;;;;;4951959;29;20024;-74
2022/04/29 09:21:12;;;;;;;5.18;2.22;;;22.80;49.60;;;;;;4937152;29;20024;-74
2022/04/29 09:23:44;;;;;;;3.78;2.13;;;22.80;49.60;;;;;;4947449;23;20138;-78
2022/04/29 09:26:32;;;;;;;4.32;2.20;;;22.80;49.50;;;;;;4933090;29;20042;-78
2022/04/29 09:29:28;;;;;;;3.63;1.98;;;22.80;49.50;;;;;;4920023;29;20106;-78
2022/04/29 09:32:48;;;;;;;2.65;1.70;;;22.80;49.40;;;;;;4896897;29;20161;-78
2022/04/29 09:35:42;;;;;;;4.28;2.30;;;22.80;50.00;;;;;;4917783;29;20396;-77
2022/04/29 09:40:54;;;;;;;3.60;1.95;;;22.80;49.50;;;;;;4935696;29;20038;-78
2022/04/29 09:43:44;;;;;;;4.28;2.20;;;22.80;49.60;;;;;;4936905;29;20046;-78
2022/04/29 09:46:21;;;;;;;3.72;2.15;;;22.80;49.60;;;;;;4937096;29;20103;-78
2022/04/29 09:48:58;;;;;;;3.83;2.15;;;22.80;49.60;;;;;;4919820;29;20036;-78
2022/04/29 09:51:43;;;;;;;4.25;1.98;;;22.80;49.60;;;;;;4935930;29;20047;-78
2022/04/29 09:54:18;;;;;;;2.83;1.63;;;22.80;49.60;;;;;;4935160;29;20062;-78
2022/04/29 09:57:01;;;;;;;3.67;1.88;;;22.80;49.60;;;;;;4937089;29;20042;-77
2022/04/29 09:59:34;;;;;;;3.95;2.20;;;22.80;49.50;;;;;;4936730;29;20440;-78
2022/04/29 10:02:01;;;;;;;3.83;2.10;;;22.80;49.50;;;;;;4937059;29;20125;-78
2022/04/29 10:04:31;;;;;;;3.35;2.03;;;22.80;49.50;;;;;;4936600;29;20059;-78
2022/04/29 10:06:57;;;;;;;3.33;2.00;;;22.80;49.50;;;;;;4937332;29;20369;-79
2022/04/29 10:09:29;;;;;;;2.50;1.70;;;22.80;49.50;;;;;;4935535;29;20369;-78
2022/04/29 10:11:58;;;;;;;3.35;2.00;;;22.80;49.60;;;;;;4935514;29;20036;-78
2022/04/29 10:14:25;;;;;;;3.90;2.13;;;22.80;49.60;;;;;;4935743;29;20392;-78
2022/04/29 10:21:15;;;;;;;3.47;1.95;;;22.80;49.60;;;;;;4936546;29;20043;-78
2022/04/29 10:23:03;;;;;;;2.42;1.58;;;22.80;49.60;;;;;;4936085;29;20035;-78
2022/04/29 10:25:29;;;;;;;3.30;1.92;;;22.80;49.60;;;;;;4936751;29;20031;-78
2022/04/29 10:27:55;;;;;;;5.43;2.35;;;22.80;49.70;;;;;;4933752;29;20114;-78
2022/04/29 10:30:30;;;;;;;4.00;2.20;;;22.80;49.60;;;;;;4936417;29;20031;-78
2022/04/29 10:33:00;;;;;;;3.03;1.90;;;22.80;49.60;;;;;;4934959;29;20083;-77
2022/04/29 10:38:15;;;;;;;2.80;1.80;;;22.80;49.60;;;;;;4935618;29;20036;-78
2022/04/29 10:40:42;;;;;;;3.47;1.85;;;22.80;49.60;;;;;;4935175;29;20141;-78
2022/04/29 10:43:09;;;;;;;4.20;2.00;;;22.80;49.50;;;;;;4934549;29;20408;-77
2022/04/29 10:45:36;;;;;;;3.97;1.60;;;22.80;49.60;;;;;;4935295;29;20048;-78
2022/04/29 10:48:33;;;;;;;2.97;1.95;;;22.80;49.50;;;;;;4919868;29;20031;-78
2022/04/29 10:51:21;;;;;;;3.63;2.15;;;22.80;49.50;;;;;;4935840;29;20106;-78
2022/04/29 10:54:05;;;;;;;3.00;1.98;;;22.80;49.50;;;;;;4935778;29;20094;-78
2022/04/29 10:57:06;;;;;;;2.47;1.73;;;22.90;49.60;;;;;;4935166;29;20159;-78
2022/04/29 10:59:57;;;;;;;3.17;1.67;;;22.80;49.50;;;;;;4935906;29;20063;-78
2022/04/29 11:02:26;;;;;;;3.65;1.90;;;22.80;49.60;;;;;;4903248;29;20515;-78
2022/04/29 11:04:52;;;;;;;2.90;1.75;;;22.90;49.60;;;;;;4934372;29;20078;-78
2022/04/29 11:07:41;;;;;;;2.88;1.70;;;22.80;49.60;;;;;;4935497;29;20074;-78
2022/04/29 11:10:15;;;;;;;3.58;1.58;;;22.80;49.60;;;;;;4935417;29;20034;-78
2022/04/29 11:13:03;;;;;;;2.72;1.63;;;22.80;49.60;;;;;;4934475;29;20039;-78
2022/04/29 11:16:12;;;;;;;2.83;1.70;;;22.80;49.60;;;;;;4914378;29;20036;-78
2022/04/29 11:19:25;;;;;;;2.28;1.58;;;22.80;49.60;;;;;;4883809;29;20135;-78
2022/04/29 11:24:52;;;;;;;3.10;1.83;;;22.80;49.60;;;;;;4917975;29;20035;-78
2022/04/29 11:27:37;;;;;;;3.83;1.88;;;22.80;49.60;;;;;;4935407;29;20042;-78
2022/04/29 11:30:09;;;;;;;2.30;1.50;;;22.80;49.60;;;;;;4933922;29;20031;-78
2022/04/29 11:32:53;;;;;;;2.50;1.75;;;22.80;49.60;;;;;;4935009;29;20477;-78
2022/04/29 11:35:23;;;;;;;2.75;1.52;;;22.80;49.60;;;;;;4934766;29;20031;-78
2022/04/29 11:37:50;;;;;;;3.33;1.63;;;22.80;49.60;;;;;;4933788;29;20024;-78
2022/04/29 11:40:16;;;;;;;3.60;1.70;;;22.80;49.60;;;;;;4933539;29;20473;-78
2022/04/29 11:42:51;;;;;;;2.72;1.73;;;22.80;49.50;;;;;;4933459;29;20039;-78
2022/04/29 11:45:20;;;;;;;3.53;1.90;;;22.80;49.60;;;;;;4933922;29;20035;-78
2022/04/29 11:48:00;;;;;;;2.60;1.55;;;22.80;49.50;;;;;;4933432;29;20063;-78
2022/04/29 11:50:31;;;;;;;2.70;1.70;;;22.80;49.50;;;;;;4934843;29;20102;-78
2022/04/29 11:53:07;;;;;;;2.20;1.60;;;22.80;49.50;;;;;;4932957;29;20028;-78
2022/04/29 11:55:33;;;;;;;2.60;1.65;;;22.80;49.60;;;;;;4917803;29;20123;-78
2022/04/29 11:58:00;;;;;;;2.83;1.83;;;22.80;49.60;;;;;;4933342;29;20066;-78
2022/04/29 12:00:31;;;;;;;3.10;1.40;;;22.80;49.50;;;;;;4934505;29;20576;-78
2022/04/29 12:02:59;;;;;;;1.83;1.33;;;22.80;49.60;;;;;;4934189;29;20031;-78
2022/04/29 12:05:26;;;;;;;3.08;1.60;;;22.80;49.60;;;;;;4917781;29;20041;-78
2022/04/29 12:07:53;;;;;;;1.92;1.55;;;22.80;49.60;;;;;;4933255;29;20106;-78
2022/04/29 12:10:30;;;;;;;2.80;1.52;;;22.80;49.60;;;;;;4934350;29;20078;-78
2022/04/29 12:12:56;;;;;;;2.95;1.70;;;22.80;49.60;;;;;;4934246;29;20440;-78
2022/04/29 12:15:27;;;;;;;2.83;1.80;;;22.80;49.60;;;;;;4934495;29;20508;-78
2022/04/29 12:17:58;;;;;;;2.53;1.60;;;22.80;49.70;;;;;;4933477;29;20043;-78
2022/04/29 12:20:24;;;;;;;2.55;1.70;;;22.80;49.60;;;;;;4917543;29;20036;-78
2022/04/29 12:22:52;;;;;;;2.58;1.73;;;22.80;49.60;;;;;;4934058;29;20043;-78
2022/04/29 12:25:30;;;;;;;2.60;1.55;;;22.80;49.60;;;;;;4934106;29;20027;-78
2022/04/29 12:28:26;;;;;;;2.72;1.65;;;22.80;49.60;;;;;;4933107;29;20032;-78
2022/04/29 12:37:10;;;;;;;2.42;1.58;;;22.80;49.70;;;;;;4933031;29;20050;-78
2022/04/29 12:39:43;;;;;;;3.85;1.70;;;22.80;49.60;;;;;;4932911;29;20083;-79
2022/04/29 12:42:14;;;;;;;3.55;1.70;;;22.80;49.60;;;;;;4934417;29;20031;-79
2022/04/29 12:48:02;;;;;;;2.78;1.88;;;22.80;49.60;;;;;;4932834;29;20032;-79
2022/04/29 12:50:42;;;;;;;3.25;1.70;;;22.80;49.70;;;;;;4917442;29;20031;-79
2022/04/29 12:53:14;;;;;;;2.55;1.55;;;22.80;49.60;;;;;;4921277;29;20035;-79
2022/04/29 12:55:42;;;;;;;2.37;1.50;;;22.80;49.70;;;;;;4938134;29;20062;-79
2022/04/29 12:58:15;;;;;;;2.08;1.52;;;22.90;49.80;;;;;;4938081;29;20032;-79
2022/04/29 13:01:05;;;;;;;2.00;1.55;;;22.90;49.70;;;;;;4936742;29;20044;-79
2022/04/29 13:03:34;;;;;;;2.60;1.67;;;22.80;49.60;;;;;;4936542;29;20036;-79
2022/04/29 13:06:11;;;;;;;3.13;1.60;;;22.80;49.70;;;;;;4936845;29;20083;-79
2022/04/29 13:08:40;;;;;;;4.30;1.67;;;22.80;49.70;;;;;;4936939;29;20509;-79
2022/04/29 13:11:06;;;;;;;2.88;1.70;;;22.80;49.70;;;;;;4905398;29;20035;-79
2022/04/29 13:13:33;;;;;;;3.15;1.60;;;22.80;49.60;;;;;;4936616;29;20038;-78
2022/04/29 13:16:01;;;;;;;3.30;1.63;;;22.80;49.60;;;;;;4936871;29;20032;-78
2022/04/29 13:18:32;;;;;;;2.05;1.42;;;22.80;49.70;;;;;;4905982;29;20119;-78
2022/04/29 13:20:59;;;;;;;2.75;1.80;;;22.80;49.60;;;;;;4936607;29;20114;-78
2022/04/29 13:23:28;;;;;;;2.42;1.40;;;22.80;49.80;;;;;;4935678;29;20035;-78
2022/04/29 13:25:57;;;;;;;2.58;1.45;;;22.80;49.70;;;;;;4936383;29;20034;-79
2022/04/29 13:28:23;;;;;;;2.08;1.58;;;22.80;49.70;;;;;;4936429;29;20032;-79
2022/04/29 13:30:49;;;;;;;3.45;2.00;;;22.80;49.80;;;;;;4937738;29;20032;-78
2022/04/29 13:33:14;;;;;;;2.58;1.50;;;22.80;49.70;;;;;;4935785;29;20019;-78
2022/04/29 13:35:40;;;;;;;3.33;1.70;;;22.80;49.80;;;;;;4935895;29;20032;-79
2022/04/29 13:38:07;;;;;;;2.28;1.63;;;22.80;49.70;;;;;;4938080;29;20417;-79
2022/04/29 13:40:33;;;;;;;3.05;1.73;;;22.80;49.80;;;;;;4936222;29;20039;-78
2022/04/29 13:43:00;;;;;;;2.60;1.65;;;22.80;49.80;;;;;;4936124;29;20066;-78
2022/04/29 13:45:26;;;;;;;2.55;1.35;;;22.80;49.80;;;;;;4937452;29;20055;-78
2022/04/29 13:47:52;;;;;;;2.30;1.40;;;22.80;49.70;;;;;;4937514;29;20028;-79
2022/04/29 13:50:17;;;;;;;2.75;1.40;;;22.80;49.70;;;;;;4936371;29;20024;-78
2022/04/29 13:55:28;;;;;;;2.00;1.50;;;22.80;49.70;;;;;;4937497;29;20440;-79